Time;durP1;ratioP1;P1;durP2;ratioP2;P2;SDS_P1;SDS_P2;PMS_P1;PMS_P2;Temp;Humidity;BMP_temperature;BMP_pressure;BME280_temperature;BME280_humidity;BME280_pressure;Samples;Min_cycle;Max_cycle;Signal;HPM_P1;HPM_P2
2020/12/11 00:02:25;;;;;;;63.42;24.95;;;;;;;;;;5092551;28;20640;-73
2020/12/11 00:04:51;;;;;;;62.67;24.13;;;;;;;;;;5076478;28;20168;-71
2020/12/11 00:07:17;;;;;;;72.22;25.38;;;;;;;;;;5087150;28;20180;-74
2020/12/11 00:09:44;;;;;;;65.03;25.50;;;;;;;;;;5093447;28;20228;-75
2020/12/11 00:12:10;;;;;;;70.63;26.85;;;;;;;;;;5093941;28;20175;-75
2020/12/11 00:14:36;;;;;;;70.70;26.13;;;;;;;;;;5084101;28;20184;-75
2020/12/11 00:17:03;;;;;;;62.95;24.45;;;;;;;;;;5077363;28;20221;-75
2020/12/11 00:19:29;;;;;;;63.97;24.88;;;;;;;;;;5081912;28;20204;-73
2020/12/11 00:21:55;;;;;;;64.75;24.40;;;;;;;;;;5093722;28;20175;-74
2020/12/11 00:24:22;;;;;;;67.57;23.98;;;;;;;;;;5083647;28;20180;-72
2020/12/11 00:26:48;;;;;;;63.70;22.63;;;;;;;;;;5087887;28;20636;-73
2020/12/11 00:29:14;;;;;;;67.20;25.25;;;;;;;;;;5093215;28;20244;-75
2020/12/11 00:31:40;;;;;;;56.30;23.30;;;;;;;;;;5087507;28;20564;-75
2020/12/11 00:34:06;;;;;;;62.70;25.15;;;;;;;;;;5088809;28;20202;-72
2020/12/11 00:36:32;;;;;;;69.07;24.40;;;;;;;;;;5093437;28;20179;-75
2020/12/11 00:38:58;;;;;;;67.80;23.70;;;;;;;;;;5083744;28;20196;-75
2020/12/11 00:41:24;;;;;;;70.50;25.02;;;;;;;;;;5087826;28;20204;-71
2020/12/11 00:43:50;;;;;;;79.80;26.05;;;;;;;;;;5092821;28;20183;-73
2020/12/11 00:46:23;;;;;;;71.32;26.15;;;;;;;;;;5076569;28;20310;-74
2020/12/11 00:48:49;;;;;;;91.93;28.10;;;;;;;;;;5078048;28;20192;-73
2020/12/11 00:51:18;;;;;;;85.50;27.85;;;;;;;;;;5073412;28;20183;-76
2020/12/11 00:53:45;;;;;;;85.70;28.90;;;;;;;;;;5076069;28;20183;-75
2020/12/11 00:56:11;;;;;;;72.50;26.52;;;;;;;;;;5077718;28;20169;-74
2020/12/11 00:58:37;;;;;;;79.50;26.73;;;;;;;;;;5072876;28;20286;-73
2020/12/11 01:01:03;;;;;;;66.55;28.02;;;;;;;;;;5078617;28;20217;-72
2020/12/11 01:03:29;;;;;;;75.80;26.90;;;;;;;;;;5092759;28;20171;-73
2020/12/11 01:05:55;;;;;;;85.00;28.48;;;;;;;;;;5093092;28;20198;-75
2020/12/11 01:08:21;;;;;;;78.32;28.30;;;;;;;;;;5084704;28;20627;-74
2020/12/11 01:10:47;;;;;;;76.93;27.77;;;;;;;;;;5077411;28;20172;-75
2020/12/11 01:13:13;;;;;;;72.38;26.38;;;;;;;;;;5088295;28;20175;-71
2020/12/11 01:15:39;;;;;;;73.90;27.38;;;;;;;;;;5078849;28;20218;-75
2020/12/11 01:18:05;;;;;;;66.97;26.95;;;;;;;;;;5086909;28;20225;-73
2020/12/11 01:20:31;;;;;;;79.75;28.25;;;;;;;;;;5081872;28;20195;-75
2020/12/11 01:22:57;;;;;;;83.03;27.65;;;;;;;;;;5097873;28;20178;-73
2020/12/11 01:25:23;;;;;;;85.03;27.13;;;;;;;;;;5082668;28;20172;-75
2020/12/11 01:27:49;;;;;;;81.95;27.83;;;;;;;;;;5097130;28;20531;-75
2020/12/11 01:30:15;;;;;;;75.82;29.42;;;;;;;;;;5092821;28;20180;-74
2020/12/11 01:32:41;;;;;;;82.90;27.85;;;;;;;;;;5083040;28;20184;-75
2020/12/11 01:35:07;;;;;;;81.63;29.35;;;;;;;;;;5096083;28;20288;-73
2020/12/11 01:37:34;;;;;;;73.57;28.95;;;;;;;;;;5086783;28;20226;-75
2020/12/11 01:40:00;;;;;;;81.53;29.85;;;;;;;;;;5076517;28;20668;-73
2020/12/11 01:42:26;;;;;;;87.20;29.00;;;;;;;;;;5083934;28;20660;-75
2020/12/11 01:44:53;;;;;;;81.25;29.40;;;;;;;;;;5076417;28;20221;-76
2020/12/11 01:47:20;;;;;;;76.20;29.45;;;;;;;;;;5087070;28;20654;-76
2020/12/11 01:49:47;;;;;;;79.30;29.35;;;;;;;;;;5096415;28;20199;-73
2020/12/11 01:52:17;;;;;;;90.00;28.83;;;;;;;;;;5085878;28;20183;-75
2020/12/11 01:54:43;;;;;;;95.45;29.27;;;;;;;;;;5083511;28;20222;-74
2020/12/11 01:57:18;;;;;;;76.80;29.38;;;;;;;;;;5083509;28;20255;-75
2020/12/11 01:59:45;;;;;;;89.35;29.02;;;;;;;;;;5096403;28;20207;-74
2020/12/11 02:02:12;;;;;;;73.80;28.13;;;;;;;;;;5093322;28;20176;-77
2020/12/11 02:04:39;;;;;;;88.10;26.92;;;;;;;;;;5096035;28;20532;-74
2020/12/11 02:07:06;;;;;;;78.68;28.10;;;;;;;;;;5096262;28;20178;-75
2020/12/11 02:09:32;;;;;;;73.28;27.90;;;;;;;;;;5096417;28;20194;-72
2020/12/11 02:11:58;;;;;;;70.43;25.80;;;;;;;;;;5080821;28;20191;-75
2020/12/11 02:14:25;;;;;;;63.55;25.42;;;;;;;;;;5091915;28;20207;-75
2020/12/11 02:16:55;;;;;;;73.10;27.70;;;;;;;;;;5094950;28;20179;-72
2020/12/11 02:19:21;;;;;;;63.78;23.20;;;;;;;;;;5092861;28;20210;-75
2020/12/11 02:21:47;;;;;;;70.88;24.75;;;;;;;;;;5085820;28;20202;-72
2020/12/11 02:24:17;;;;;;;68.43;26.20;;;;;;;;;;5093501;28;20216;-75
2020/12/11 02:26:43;;;;;;;71.88;25.65;;;;;;;;;;5093984;28;20194;-74
2020/12/11 02:29:09;;;;;;;64.85;25.33;;;;;;;;;;5091259;28;20196;-73
2020/12/11 02:31:35;;;;;;;63.65;24.95;;;;;;;;;;5091462;28;20186;-74
2020/12/11 02:34:01;;;;;;;58.50;23.67;;;;;;;;;;5088117;28;20168;-76
2020/12/11 02:36:27;;;;;;;68.63;23.40;;;;;;;;;;5094891;28;20175;-71
2020/12/11 02:38:53;;;;;;;59.80;23.42;;;;;;;;;;5094340;28;20195;-74
2020/12/11 02:41:19;;;;;;;67.93;24.65;;;;;;;;;;5093772;28;20206;-75
2020/12/11 02:43:45;;;;;;;56.38;23.50;;;;;;;;;;5079433;28;20175;-75
2020/12/11 02:46:11;;;;;;;63.35;22.30;;;;;;;;;;5091675;28;20171;-72
2020/12/11 02:48:37;;;;;;;56.00;23.88;;;;;;;;;;5094201;28;20207;-73
2020/12/11 02:51:03;;;;;;;58.47;23.25;;;;;;;;;;5085157;28;20195;-76
2020/12/11 02:53:29;;;;;;;53.13;23.77;;;;;;;;;;5075833;28;20532;-73
2020/12/11 02:55:57;;;;;;;65.97;24.85;;;;;;;;;;5092340;28;20624;-77
2020/12/11 02:58:23;;;;;;;52.58;21.77;;;;;;;;;;5094219;28;20537;-76
2020/12/11 03:00:49;;;;;;;59.03;22.88;;;;;;;;;;5089138;28;20286;-73
2020/12/11 03:03:16;;;;;;;55.97;23.13;;;;;;;;;;5077538;28;20192;-76
2020/12/11 03:05:42;;;;;;;52.88;23.60;;;;;;;;;;5076971;28;20186;-75
2020/12/11 03:08:08;;;;;;;58.40;23.87;;;;;;;;;;5065626;28;632833;-74
2020/12/11 03:10:34;;;;;;;59.08;23.50;;;;;;;;;;5094963;28;20229;-74
2020/12/11 03:13:00;;;;;;;51.80;23.13;;;;;;;;;;5092740;28;20171;-74
2020/12/11 03:15:26;;;;;;;57.85;22.65;;;;;;;;;;5074295;28;20204;-75
2020/12/11 03:17:52;;;;;;;57.83;23.13;;;;;;;;;;5082669;28;20186;-75
2020/12/11 03:20:22;;;;;;;50.88;22.55;;;;;;;;;;5088570;28;20192;-73
2020/12/11 03:22:49;;;;;;;56.88;22.90;;;;;;;;;;5085484;28;20168;-75
2020/12/11 03:25:15;;;;;;;51.53;21.77;;;;;;;;;;5094161;28;20179;-75
2020/12/11 03:27:41;;;;;;;48.67;20.85;;;;;;;;;;5077572;28;20168;-72
2020/12/11 03:30:07;;;;;;;51.92;23.48;;;;;;;;;;5079718;28;20254;-74
2020/12/11 03:32:33;;;;;;;46.55;21.00;;;;;;;;;;5074701;28;20529;-73
2020/12/11 03:34:59;;;;;;;54.28;20.23;;;;;;;;;;5088292;28;20175;-73
2020/12/11 03:37:25;;;;;;;47.78;20.80;;;;;;;;;;5093933;28;20202;-74
2020/12/11 03:39:51;;;;;;;51.95;22.40;;;;;;;;;;5083040;28;20207;-72
2020/12/11 03:42:17;;;;;;;42.17;19.20;;;;;;;;;;5091578;28;20229;-74
2020/12/11 03:44:43;;;;;;;49.13;22.23;;;;;;;;;;5093514;28;20188;-75
2020/12/11 03:47:09;;;;;;;42.50;19.42;;;;;;;;;;5094154;28;20167;-74
2020/12/11 03:49:35;;;;;;;46.40;19.38;;;;;;;;;;5090577;28;20195;-72
2020/12/11 03:52:02;;;;;;;45.53;21.52;;;;;;;;;;5087094;28;20172;-72
2020/12/11 03:54:28;;;;;;;48.30;21.15;;;;;;;;;;5093768;28;20171;-73
2020/12/11 03:56:54;;;;;;;49.35;20.10;;;;;;;;;;5094122;28;20183;-76
2020/12/11 03:59:20;;;;;;;42.55;19.85;;;;;;;;;;5093798;28;20203;-76
2020/12/11 04:01:46;;;;;;;43.97;19.90;;;;;;;;;;5093912;28;20217;-76
2020/12/11 04:04:12;;;;;;;48.00;21.05;;;;;;;;;;5092741;28;20565;-75
2020/12/11 04:06:38;;;;;;;51.25;21.65;;;;;;;;;;5093488;28;20211;-75
2020/12/11 04:09:04;;;;;;;51.47;20.10;;;;;;;;;;5093465;28;20641;-73
2020/12/11 04:11:31;;;;;;;42.35;19.42;;;;;;;;;;5081704;28;20605;-75
2020/12/11 04:13:57;;;;;;;42.53;19.95;;;;;;;;;;5093294;28;20188;-73
2020/12/11 04:16:23;;;;;;;40.85;18.95;;;;;;;;;;5093776;28;20262;-76
2020/12/11 04:18:49;;;;;;;44.53;20.58;;;;;;;;;;5093830;28;20192;-75
2020/12/11 04:21:15;;;;;;;43.17;18.38;;;;;;;;;;5087812;28;20200;-75
2020/12/11 04:23:43;;;;;;;41.28;19.75;;;;;;;;;;5088094;28;20565;-75
2020/12/11 04:26:09;;;;;;;41.03;18.45;;;;;;;;;;5086947;28;20249;-73
2020/12/11 04:28:35;;;;;;;41.35;18.17;;;;;;;;;;5093242;28;20213;-73
2020/12/11 04:31:01;;;;;;;45.50;20.38;;;;;;;;;;5073606;28;20729;-74
2020/12/11 04:33:27;;;;;;;50.33;19.67;;;;;;;;;;5083665;28;20175;-74
2020/12/11 04:35:53;;;;;;;44.13;20.00;;;;;;;;;;5090734;28;20521;-75
2020/12/11 04:38:19;;;;;;;40.17;20.20;;;;;;;;;;5093085;28;20245;-75
2020/12/11 04:40:45;;;;;;;39.92;19.15;;;;;;;;;;5087489;28;20218;-73
2020/12/11 04:43:12;;;;;;;41.20;18.95;;;;;;;;;;5076250;28;20587;-74
2020/12/11 04:45:39;;;;;;;43.20;19.00;;;;;;;;;;5086490;28;20173;-75
2020/12/11 04:48:08;;;;;;;39.20;18.67;;;;;;;;;;5090078;28;20652;-73
2020/12/11 04:50:34;;;;;;;40.65;19.33;;;;;;;;;;5092971;28;20180;-76
2020/12/11 04:53:00;;;;;;;37.22;18.38;;;;;;;;;;5089458;28;20536;-73
2020/12/11 04:55:26;;;;;;;38.08;20.45;;;;;;;;;;5093136;28;20532;-74
2020/12/11 04:57:54;;;;;;;41.55;18.65;;;;;;;;;;5093469;28;20203;-72
2020/12/11 05:00:22;;;;;;;37.10;19.35;;;;;;;;;;5088377;28;20206;-73
2020/12/11 05:02:48;;;;;;;41.47;19.58;;;;;;;;;;5079803;28;20186;-74
2020/12/11 05:05:15;;;;;;;42.50;18.50;;;;;;;;;;5091984;28;20179;-76
2020/12/11 05:07:42;;;;;;;40.45;18.63;;;;;;;;;;5092656;28;20187;-75
2020/12/11 05:10:09;;;;;;;35.08;18.20;;;;;;;;;;5076633;28;20196;-76
2020/12/11 05:12:35;;;;;;;33.83;19.42;;;;;;;;;;5078170;28;20261;-76
2020/12/11 05:15:04;;;;;;;37.78;18.70;;;;;;;;;;5085112;28;20175;-75
2020/12/11 05:17:31;;;;;;;40.05;18.90;;;;;;;;;;5077194;28;20171;-73
2020/12/11 05:19:58;;;;;;;42.65;19.50;;;;;;;;;;5090820;28;20561;-75
2020/12/11 05:22:30;;;;;;;42.60;19.65;;;;;;;;;;5086914;28;20167;-74
2020/12/11 05:24:57;;;;;;;40.35;17.75;;;;;;;;;;5091379;28;20202;-73
2020/12/11 05:27:30;;;;;;;32.28;17.70;;;;;;;;;;5083074;28;20276;-74
2020/12/11 05:29:57;;;;;;;46.80;21.35;;;;;;;;;;5076862;28;20725;-75
2020/12/11 05:32:42;;;;;;;41.35;19.00;;;;;;;;;;5072665;28;20180;-75
2020/12/11 05:35:23;;;;;;;47.17;22.45;;;;;;;;;;5085384;28;20179;-75
2020/12/11 05:37:53;;;;;;;36.85;18.50;;;;;;;;;;5074267;28;20318;-73
2020/12/11 05:40:27;;;;;;;42.72;19.42;;;;;;;;;;5072793;28;20226;-75
2020/12/11 05:43:12;;;;;;;46.53;20.98;;;;;;;;;;5087728;28;20171;-74
2020/12/11 05:45:53;;;;;;;45.58;21.08;;;;;;;;;;5080765;28;20164;-72
2020/12/11 05:48:20;;;;;;;43.00;20.80;;;;;;;;;;5075574;28;20279;-75
2020/12/11 05:50:46;;;;;;;39.97;19.95;;;;;;;;;;5082542;28;20517;-75
2020/12/11 05:53:12;;;;;;;45.35;21.38;;;;;;;;;;5086002;28;20179;-73
2020/12/11 05:55:38;;;;;;;49.70;22.17;;;;;;;;;;5090868;28;20176;-74
2020/12/11 05:58:07;;;;;;;43.58;20.65;;;;;;;;;;5092712;28;20199;-76
2020/12/11 06:00:33;;;;;;;48.00;22.30;;;;;;;;;;5084460;28;20203;-76
2020/12/11 06:02:59;;;;;;;47.60;20.35;;;;;;;;;;5095768;28;20164;-73
2020/12/11 06:05:25;;;;;;;48.28;20.38;;;;;;;;;;5084681;28;20285;-76
2020/12/11 06:07:52;;;;;;;46.58;20.40;;;;;;;;;;5083586;28;20195;-73
2020/12/11 06:10:20;;;;;;;48.42;20.48;;;;;;;;;;5096799;28;20181;-75
2020/12/11 06:12:46;;;;;;;50.08;20.25;;;;;;;;;;5094108;28;20183;-73
2020/12/11 06:15:12;;;;;;;48.17;21.27;;;;;;;;;;5092103;28;20184;-73
2020/12/11 06:17:40;;;;;;;53.85;20.83;;;;;;;;;;5079004;28;20255;-75
2020/12/11 06:20:07;;;;;;;46.35;21.85;;;;;;;;;;5088131;28;20203;-75
2020/12/11 06:22:33;;;;;;;47.22;21.02;;;;;;;;;;5089762;28;20559;-74
2020/12/11 06:25:19;;;;;;;47.78;22.17;;;;;;;;;;5093640;28;20171;-74
2020/12/11 06:27:45;;;;;;;54.40;22.90;;;;;;;;;;5088685;28;20175;-73
2020/12/11 06:30:25;;;;;;;47.72;21.88;;;;;;;;;;5092020;28;20206;-75
2020/12/11 06:32:52;;;;;;;51.08;22.00;;;;;;;;;;5095486;28;20175;-76
2020/12/11 06:35:19;;;;;;;56.40;24.48;;;;;;;;;;5089006;28;20179;-76
2020/12/11 06:37:45;;;;;;;51.30;23.65;;;;;;;;;;5093405;28;20184;-75
2020/12/11 06:40:11;;;;;;;48.10;20.33;;;;;;;;;;5082327;28;20195;-76
2020/12/11 06:42:39;;;;;;;47.85;21.25;;;;;;;;;;5095341;28;20528;-73
2020/12/11 06:45:24;;;;;;;59.35;25.02;;;;;;;;;;5095750;28;20258;-74
2020/12/11 06:47:58;;;;;;;53.72;21.40;;;;;;;;;;5078612;28;20176;-75
2020/12/11 06:50:28;;;;;;;47.20;23.23;;;;;;;;;;5092665;28;20213;-75
2020/12/11 06:52:55;;;;;;;49.88;22.95;;;;;;;;;;5095522;28;20179;-75
2020/12/11 06:55:21;;;;;;;52.05;23.20;;;;;;;;;;5095181;28;20254;-76
2020/12/11 06:57:48;;;;;;;56.13;22.67;;;;;;;;;;5088463;28;20564;-74
2020/12/11 07:00:23;;;;;;;55.63;22.45;;;;;;;;;;5078686;28;20708;-75
2020/12/11 07:03:08;;;;;;;47.60;23.75;;;;;;;;;;5094729;28;20640;-75
2020/12/11 07:05:34;;;;;;;61.53;23.25;;;;;;;;;;5095170;28;20167;-74
2020/12/11 07:08:00;;;;;;;56.70;24.30;;;;;;;;;;5084861;28;20603;-76
2020/12/11 07:10:27;;;;;;;55.47;24.08;;;;;;;;;;5090485;28;20184;-76
2020/12/11 07:12:54;;;;;;;58.47;25.48;;;;;;;;;;5079552;28;20203;-75
2020/12/11 07:15:20;;;;;;;54.72;22.23;;;;;;;;;;5094847;28;20183;-76
2020/12/11 07:17:46;;;;;;;55.95;23.63;;;;;;;;;;5095057;28;20198;-75
2020/12/11 07:20:12;;;;;;;57.42;24.48;;;;;;;;;;5090265;28;20224;-75
2020/12/11 07:22:39;;;;;;;62.20;25.58;;;;;;;;;;5074470;28;20181;-76
2020/12/11 07:25:05;;;;;;;57.25;23.85;;;;;;;;;;5081901;28;20660;-74
2020/12/11 07:27:31;;;;;;;67.90;26.13;;;;;;;;;;5078838;28;20532;-76
2020/12/11 07:29:57;;;;;;;56.72;24.90;;;;;;;;;;5082601;28;20206;-76
2020/12/11 07:32:24;;;;;;;62.63;25.77;;;;;;;;;;5082409;28;20211;-75
2020/12/11 07:34:50;;;;;;;55.08;23.58;;;;;;;;;;5086013;28;20699;-76
2020/12/11 07:37:17;;;;;;;54.30;23.60;;;;;;;;;;5090719;28;20526;-75
2020/12/11 07:39:43;;;;;;;56.72;24.38;;;;;;;;;;5090734;28;20912;-74
2020/12/11 07:42:09;;;;;;;62.63;22.88;;;;;;;;;;5087808;28;20171;-76
2020/12/11 07:44:37;;;;;;;59.05;25.17;;;;;;;;;;5071560;28;20267;-74
2020/12/11 07:47:07;;;;;;;67.75;26.48;;;;;;;;;;5070162;28;20179;-74
2020/12/11 07:49:40;;;;;;;69.00;27.30;;;;;;;;;;5089395;28;20207;-74
2020/12/11 07:52:07;;;;;;;58.85;25.65;;;;;;;;;;5090359;28;20179;-75
2020/12/11 07:54:36;;;;;;;70.25;26.55;;;;;;;;;;5086206;28;20187;-76
2020/12/11 07:57:13;;;;;;;59.03;25.65;;;;;;;;;;5078308;28;20171;-75
2020/12/11 07:59:55;;;;;;;63.17;26.38;;;;;;;;;;5079767;28;20256;-77
2020/12/11 08:02:22;;;;;;;61.03;26.10;;;;;;;;;;5070329;28;20672;-77
2020/12/11 08:04:48;;;;;;;65.50;26.27;;;;;;;;;;5073480;28;20184;-74
2020/12/11 08:07:43;;;;;;;60.88;25.10;;;;;;;;;;5069736;28;20188;-75
2020/12/11 08:10:13;;;;;;;65.63;25.55;;;;;;;;;;5080848;28;20311;-74
2020/12/11 08:12:40;;;;;;;73.50;28.58;;;;;;;;;;5089206;28;20187;-75
2020/12/11 08:15:06;;;;;;;70.07;27.73;;;;;;;;;;5089252;28;20194;-72
2020/12/11 08:17:33;;;;;;;74.63;27.88;;;;;;;;;;5077644;28;20268;-73
2020/12/11 08:20:03;;;;;;;73.45;29.20;;;;;;;;;;5075122;28;20204;-75
2020/12/11 08:22:47;;;;;;;70.47;27.63;;;;;;;;;;5082627;28;20255;-77
2020/12/11 08:25:20;;;;;;;71.68;28.75;;;;;;;;;;5081193;28;20270;-77
2020/12/11 08:27:46;;;;;;;70.80;28.35;;;;;;;;;;5081301;28;20191;-77
2020/12/11 08:30:14;;;;;;;73.53;27.70;;;;;;;;;;5089806;28;20671;-76
2020/12/11 08:32:41;;;;;;;75.30;28.15;;;;;;;;;;5080405;28;20176;-76
2020/12/11 08:35:33;;;;;;;70.90;28.20;;;;;;;;;;5069074;28;20218;-76
2020/12/11 08:37:59;;;;;;;74.88;26.48;;;;;;;;;;5081515;28;20187;-76
2020/12/11 08:40:26;;;;;;;77.90;28.75;;;;;;;;;;5085409;28;20203;-76
2020/12/11 08:43:19;;;;;;;68.95;30.40;;;;;;;;;;5088580;28;20176;-76
2020/12/11 08:48:48;;;;;;;70.10;25.83;;;;;;;;;;5089601;28;20217;-75
2020/12/11 08:51:14;;;;;;;75.65;26.58;;;;;;;;;;5075668;28;20187;-75
2020/12/11 08:53:49;;;;;;;76.07;27.08;;;;;;;;;;5080594;28;20182;-76
2020/12/11 08:56:15;;;;;;;72.50;27.50;;;;;;;;;;5067826;28;20203;-79
2020/12/11 08:58:41;;;;;;;68.63;27.08;;;;;;;;;;5075933;28;20200;-77
2020/12/11 09:01:07;;;;;;;76.20;28.00;;;;;;;;;;5089118;28;20237;-76
2020/12/11 09:03:33;;;;;;;63.50;28.13;;;;;;;;;;5088961;28;20175;-77
2020/12/11 09:05:59;;;;;;;75.75;27.08;;;;;;;;;;5087417;28;20171;-78
2020/12/11 09:08:25;;;;;;;70.38;27.50;;;;;;;;;;5088991;28;20211;-77
2020/12/11 09:10:52;;;;;;;61.50;27.38;;;;;;;;;;5086854;28;20179;-76
2020/12/11 09:13:18;;;;;;;78.22;27.65;;;;;;;;;;5087354;28;20692;-78
2020/12/11 09:15:44;;;;;;;62.53;27.02;;;;;;;;;;5082310;28;20195;-78
2020/12/11 09:18:10;;;;;;;64.80;25.83;;;;;;;;;;5076277;28;20209;-78
2020/12/11 09:20:36;;;;;;;68.47;27.02;;;;;;;;;;5083054;28;20203;-78
2020/12/11 09:23:02;;;;;;;64.35;28.02;;;;;;;;;;5075554;28;20452;-77
2020/12/11 09:25:28;;;;;;;59.28;26.10;;;;;;;;;;5084465;28;20176;-77
2020/12/11 09:27:55;;;;;;;59.92;25.35;;;;;;;;;;5087188;28;20656;-77
2020/12/11 09:30:30;;;;;;;63.75;26.70;;;;;;;;;;5088292;28;20186;-78
2020/12/11 09:33:40;;;;;;;63.67;25.70;;;;;;;;;;5088849;28;20171;-76
2020/12/11 09:35:45;;;;;;;77.75;28.27;;;;;;;;;;5087601;28;20301;-76
2020/12/11 09:38:11;;;;;;;69.97;27.30;;;;;;;;;;5083418;28;20204;-78
2020/12/11 09:40:45;;;;;;;67.18;28.30;;;;;;;;;;5089235;28;20203;-78
2020/12/11 09:53:47;;;;;;;64.88;28.05;;;;;;;;;;5089550;28;20961;-78
2020/12/11 09:56:00;;;;;;;63.00;26.00;;;;;;;;;;5084367;28;20198;-79
2020/12/11 09:58:26;;;;;;;52.10;25.23;;;;;;;;;;5090413;28;20627;-79
2020/12/11 10:00:52;;;;;;;70.65;26.67;;;;;;;;;;5089729;28;20223;-77
2020/12/11 10:03:22;;;;;;;58.08;24.67;;;;;;;;;;5091164;28;20179;-77
2020/12/11 10:05:49;;;;;;;50.35;24.63;;;;;;;;;;5087445;28;20211;-78
2020/12/11 10:08:15;;;;;;;59.97;25.55;;;;;;;;;;5092521;28;20211;-78
2020/12/11 10:10:41;;;;;;;62.03;26.67;;;;;;;;;;5101996;28;20275;-78
2020/12/11 10:13:08;;;;;;;54.92;25.40;;;;;;;;;;5090621;28;20254;-78
2020/12/11 10:15:34;;;;;;;60.55;24.95;;;;;;;;;;5092219;28;20532;-78
2020/12/11 10:18:05;;;;;;;62.75;26.48;;;;;;;;;;5090279;28;20214;-78
2020/12/11 10:20:31;;;;;;;54.58;24.08;;;;;;;;;;5081116;28;20206;-79
2020/12/11 10:22:57;;;;;;;57.95;26.33;;;;;;;;;;5091929;28;20211;-79
2020/12/11 10:25:23;;;;;;;63.65;26.10;;;;;;;;;;5080878;28;20176;-78
2020/12/11 10:27:49;;;;;;;59.20;24.83;;;;;;;;;;5087207;28;20223;-77
2020/12/11 10:30:15;;;;;;;57.58;25.25;;;;;;;;;;5089785;28;20191;-76
2020/12/11 10:32:41;;;;;;;59.85;26.27;;;;;;;;;;5092426;28;20183;-77
2020/12/11 10:35:08;;;;;;;52.90;25.35;;;;;;;;;;5083731;28;20191;-77
2020/12/11 10:37:35;;;;;;;65.10;26.48;;;;;;;;;;5091756;28;20254;-78
2020/12/11 10:40:04;;;;;;;59.60;25.80;;;;;;;;;;5091604;28;20211;-77
2020/12/11 10:42:30;;;;;;;62.67;27.50;;;;;;;;;;5087105;28;20199;-78
2020/12/11 10:44:56;;;;;;;49.45;23.90;;;;;;;;;;5086037;28;20180;-78
2020/12/11 10:47:22;;;;;;;54.80;24.85;;;;;;;;;;5091037;28;20849;-77
2020/12/11 10:49:49;;;;;;;55.40;24.73;;;;;;;;;;5090541;28;20214;-78
2020/12/11 10:52:17;;;;;;;56.13;25.30;;;;;;;;;;5090957;28;20190;-78
2020/12/11 10:54:43;;;;;;;63.35;25.83;;;;;;;;;;5088037;28;20171;-77
2020/12/11 10:57:09;;;;;;;53.88;25.50;;;;;;;;;;5082250;28;20207;-78
2020/12/11 10:59:35;;;;;;;51.45;24.27;;;;;;;;;;5083899;28;20215;-76
2020/12/11 11:02:01;;;;;;;55.70;24.20;;;;;;;;;;5072285;28;20184;-77
2020/12/11 11:04:27;;;;;;;51.55;23.10;;;;;;;;;;5071473;28;20168;-77
2020/12/11 11:07:01;;;;;;;52.22;23.75;;;;;;;;;;5091274;28;20164;-80
2020/12/11 11:09:39;;;;;;;54.85;24.80;;;;;;;;;;5087902;28;20197;-77
2020/12/11 11:15:22;;;;;;;60.03;26.45;;;;;;;;;;5084284;28;20187;-77
2020/12/11 11:20:48;;;;;;;66.25;25.35;;;;;;;;;;5076937;28;20231;-77
2020/12/11 11:23:39;;;;;;;56.15;24.42;;;;;;;;;;5076180;28;20305;-77
2020/12/11 11:28:34;;;;;;;55.67;25.63;;;;;;;;;;5090625;28;20752;-78
2020/12/11 11:31:00;;;;;;;51.13;24.30;;;;;;;;;;5090752;28;20186;-78
2020/12/11 11:33:26;;;;;;;55.17;25.80;;;;;;;;;;5070688;28;20179;-79
2020/12/11 11:35:52;;;;;;;55.83;25.67;;;;;;;;;;5070432;28;20653;-78
2020/12/11 11:38:19;;;;;;;48.85;24.48;;;;;;;;;;5083581;28;20200;-77
2020/12/11 11:40:47;;;;;;;64.13;26.10;;;;;;;;;;5081232;28;20204;-78
2020/12/11 11:43:16;;;;;;;50.70;25.08;;;;;;;;;;5088767;28;20183;-77
2020/12/11 11:45:42;;;;;;;57.72;25.17;;;;;;;;;;5090243;28;20184;-79
2020/12/11 11:48:12;;;;;;;58.03;25.75;;;;;;;;;;5082647;28;20200;-79
2020/12/11 11:53:10;;;;;;;58.40;24.17;;;;;;;;;;5077671;28;20943;-79
2020/12/11 11:55:36;;;;;;;66.80;30.73;;;;;;;;;;5079199;28;20510;-79
2020/12/11 11:58:02;;;;;;;53.88;25.20;;;;;;;;;;5085636;28;20187;-78
2020/12/11 12:00:28;;;;;;;53.97;24.83;;;;;;;;;;5088585;28;20218;-78
2020/12/11 12:02:54;;;;;;;62.38;30.88;;;;;;;;;;5080594;28;20172;-78
2020/12/11 12:05:20;;;;;;;58.30;23.38;;;;;;;;;;5072498;28;20183;-78
2020/12/11 12:07:47;;;;;;;57.55;25.67;;;;;;;;;;5080103;28;20872;-79
2020/12/11 12:10:13;;;;;;;56.58;26.27;;;;;;;;;;5083054;28;20203;-79
2020/12/11 12:12:42;;;;;;;53.95;24.13;;;;;;;;;;5073037;28;20258;-78
2020/12/11 12:15:12;;;;;;;52.63;24.00;;;;;;;;;;5089203;28;20198;-79
2020/12/11 12:17:55;;;;;;;61.63;25.48;;;;;;;;;;5088700;28;20171;-79
2020/12/11 12:30:53;;;;;;;49.05;23.95;;;;;;;;;;5090153;28;20190;-78
2020/12/11 12:43:53;;;;;;;54.72;25.75;;;;;;;;;;5088368;28;20214;-75
2020/12/11 12:46:20;;;;;;;59.25;25.77;;;;;;;;;;5069539;28;20180;-77
2020/12/11 12:48:46;;;;;;;51.50;24.10;;;;;;;;;;5079800;28;20192;-78
2020/12/11 12:51:12;;;;;;;57.75;25.45;;;;;;;;;;5073355;28;20237;-78
2020/12/11 12:53:38;;;;;;;61.72;27.55;;;;;;;;;;5088191;28;20202;-77
2020/12/11 12:58:54;;;;;;;59.00;25.48;;;;;;;;;;5088061;28;20214;-78
2020/12/11 13:06:47;;;;;;;60.00;25.88;;;;;;;;;;5082888;28;20190;-78
2020/12/11 13:09:14;;;;;;;63.95;25.35;;;;;;;;;;5070578;28;20290;-78
2020/12/11 13:11:40;;;;;;;69.40;27.42;;;;;;;;;;5077092;28;20660;-77
2020/12/11 13:14:06;;;;;;;64.68;27.52;;;;;;;;;;5087690;28;20632;-78
2020/12/11 13:16:32;;;;;;;58.30;26.40;;;;;;;;;;5092838;28;20671;-77
2020/12/11 13:18:59;;;;;;;55.72;26.70;;;;;;;;;;5084311;28;20200;-76
2020/12/11 13:21:31;;;;;;;62.08;26.73;;;;;;;;;;5074102;28;20211;-77
2020/12/11 13:29:12;;;;;;;60.95;27.52;;;;;;;;;;5074596;28;20270;-78
2020/12/11 13:31:39;;;;;;;67.13;27.63;;;;;;;;;;5079814;28;20232;-78
2020/12/11 13:34:05;;;;;;;67.28;28.70;;;;;;;;;;5092737;28;20262;-77
2020/12/11 13:36:31;;;;;;;62.72;26.85;;;;;;;;;;5086032;28;20184;-77
2020/12/11 13:38:57;;;;;;;60.08;27.27;;;;;;;;;;5072872;28;20663;-78
2020/12/11 13:41:23;;;;;;;63.17;24.75;;;;;;;;;;5092356;28;20198;-77
2020/12/11 13:43:49;;;;;;;74.28;27.17;;;;;;;;;;5086416;28;20233;-77
2020/12/11 13:46:15;;;;;;;62.58;27.75;;;;;;;;;;5091351;28;20532;-77
2020/12/11 13:48:41;;;;;;;55.25;25.77;;;;;;;;;;5093024;28;20221;-78
2020/12/11 13:51:07;;;;;;;75.10;28.67;;;;;;;;;;5091512;28;20164;-77
2020/12/11 13:53:34;;;;;;;71.68;27.67;;;;;;;;;;5078212;28;20565;-78
2020/12/11 13:56:00;;;;;;;57.38;25.65;;;;;;;;;;5073966;28;20245;-76
2020/12/11 13:58:27;;;;;;;56.80;25.75;;;;;;;;;;5092282;28;20203;-77
2020/12/11 14:00:53;;;;;;;63.03;27.85;;;;;;;;;;5092596;28;20284;-79
2020/12/11 14:03:19;;;;;;;62.17;26.23;;;;;;;;;;5084786;28;20184;-79
2020/12/11 14:05:46;;;;;;;66.13;25.25;;;;;;;;;;5070069;28;20298;-78
2020/12/11 14:08:13;;;;;;;55.92;24.42;;;;;;;;;;5083091;28;20220;-77
2020/12/11 14:10:39;;;;;;;60.65;27.48;;;;;;;;;;5090679;28;20195;-77
2020/12/11 14:13:05;;;;;;;59.70;26.25;;;;;;;;;;5078613;28;20254;-79
2020/12/11 14:15:31;;;;;;;57.20;25.42;;;;;;;;;;5084593;28;20187;-78
2020/12/11 14:23:07;;;;;;;54.85;25.27;;;;;;;;;;5083250;28;20254;-78
2020/12/11 14:25:33;;;;;;;49.50;24.83;;;;;;;;;;5082928;28;20171;-78
2020/12/11 14:27:59;;;;;;;50.88;24.92;;;;;;;;;;5090627;28;20180;-78
2020/12/11 14:30:25;;;;;;;50.35;25.10;;;;;;;;;;5091442;28;20187;-78
2020/12/11 14:32:51;;;;;;;59.65;25.85;;;;;;;;;;5079563;28;20183;-77
2020/12/11 14:35:18;;;;;;;56.40;26.50;;;;;;;;;;5090796;28;20175;-76
2020/12/11 14:37:46;;;;;;;55.13;25.13;;;;;;;;;;5086587;28;20226;-76
2020/12/11 14:40:12;;;;;;;57.33;23.70;;;;;;;;;;5079659;28;20278;-76
2020/12/11 14:42:40;;;;;;;50.50;23.75;;;;;;;;;;5086202;28;20176;-75
2020/12/11 14:45:06;;;;;;;59.65;25.70;;;;;;;;;;5083433;28;20178;-78
2020/12/11 14:47:32;;;;;;;57.60;25.60;;;;;;;;;;5085190;28;20188;-77
2020/12/11 14:49:59;;;;;;;54.53;24.58;;;;;;;;;;5090605;28;20195;-78
2020/12/11 14:52:26;;;;;;;60.10;25.80;;;;;;;;;;5071789;28;20951;-78
2020/12/11 14:54:53;;;;;;;47.85;23.88;;;;;;;;;;5079651;28;20187;-77
2020/12/11 14:57:20;;;;;;;56.55;26.67;;;;;;;;;;5084978;28;20278;-78
2020/12/11 14:59:46;;;;;;;56.72;24.70;;;;;;;;;;5084779;28;20282;-77
2020/12/11 15:02:12;;;;;;;54.20;24.25;;;;;;;;;;5083413;28;20241;-78
2020/12/11 15:04:38;;;;;;;49.60;24.13;;;;;;;;;;5075075;28;20168;-77
2020/12/11 15:07:04;;;;;;;51.03;24.85;;;;;;;;;;5085663;28;20202;-77
2020/12/11 15:09:31;;;;;;;51.88;24.65;;;;;;;;;;5087054;28;20293;-78
2020/12/11 15:11:57;;;;;;;59.75;25.27;;;;;;;;;;5087849;28;20313;-77
2020/12/11 15:14:23;;;;;;;51.20;24.40;;;;;;;;;;5077697;28;20184;-79
2020/12/11 15:16:49;;;;;;;50.70;24.63;;;;;;;;;;5084192;28;20267;-78
2020/12/11 15:19:15;;;;;;;48.63;22.48;;;;;;;;;;5076961;28;20573;-79
2020/12/11 15:21:41;;;;;;;52.47;25.00;;;;;;;;;;5079539;28;20196;-77
2020/12/11 15:24:13;;;;;;;57.35;26.33;;;;;;;;;;5080975;28;20175;-77